sensor_id;sensor_type;location;lat;lon;timestamp;P1;durP1;ratioP1;P2;durP2;ratioP2
78308;SDS011;67566;42.022;21.356;2023-09-12T00:02:00;12.77;;;8.02;;
78308;SDS011;67566;42.022;21.356;2023-09-12T00:04:25;13.50;;;6.95;;
78308;SDS011;67566;42.022;21.356;2023-09-12T00:06:51;10.15;;;6.68;;
78308;SDS011;67566;42.022;21.356;2023-09-12T00:09:16;13.07;;;6.63;;
78308;SDS011;67566;42.022;21.356;2023-09-12T00:11:42;10.77;;;5.90;;
78308;SDS011;67566;42.022;21.356;2023-09-12T00:14:10;15.10;;;6.50;;
78308;SDS011;67566;42.022;21.356;2023-09-12T00:16:41;10.70;;;6.78;;
78308;SDS011;67566;42.022;21.356;2023-09-12T00:19:06;11.98;;;6.20;;
78308;SDS011;67566;42.022;21.356;2023-09-12T00:21:31;14.18;;;6.65;;
78308;SDS011;67566;42.022;21.356;2023-09-12T00:23:57;10.05;;;6.40;;
78308;SDS011;67566;42.022;21.356;2023-09-12T00:26:22;10.35;;;6.95;;
78308;SDS011;67566;42.022;21.356;2023-09-12T00:28:48;12.13;;;6.30;;
78308;SDS011;67566;42.022;21.356;2023-09-12T00:31:13;11.45;;;6.15;;
78308;SDS011;67566;42.022;21.356;2023-09-12T00:33:39;11.10;;;6.72;;
78308;SDS011;67566;42.022;21.356;2023-09-12T00:36:04;11.15;;;6.32;;
78308;SDS011;67566;42.022;21.356;2023-09-12T00:38:30;12.00;;;7.47;;
78308;SDS011;67566;42.022;21.356;2023-09-12T00:40:55;11.68;;;6.53;;
78308;SDS011;67566;42.022;21.356;2023-09-12T00:43:21;12.10;;;7.25;;
78308;SDS011;67566;42.022;21.356;2023-09-12T00:45:46;14.27;;;7.10;;
78308;SDS011;67566;42.022;21.356;2023-09-12T00:48:12;16.25;;;7.65;;
78308;SDS011;67566;42.022;21.356;2023-09-12T00:50:38;11.90;;;7.15;;
78308;SDS011;67566;42.022;21.356;2023-09-12T00:53:05;13.70;;;7.50;;
78308;SDS011;67566;42.022;21.356;2023-09-12T00:55:32;13.50;;;7.60;;
78308;SDS011;67566;42.022;21.356;2023-09-12T00:58:00;18.88;;;7.38;;
78308;SDS011;67566;42.022;21.356;2023-09-12T01:00:26;15.23;;;7.68;;
78308;SDS011;67566;42.022;21.356;2023-09-12T01:02:52;12.02;;;7.80;;
78308;SDS011;67566;42.022;21.356;2023-09-12T01:05:19;9.27;;;6.57;;
78308;SDS011;67566;42.022;21.356;2023-09-12T01:07:47;12.48;;;6.65;;
78308;SDS011;67566;42.022;21.356;2023-09-12T01:10:13;11.32;;;6.30;;
78308;SDS011;67566;42.022;21.356;2023-09-12T01:12:38;11.25;;;6.45;;
78308;SDS011;67566;42.022;21.356;2023-09-12T01:15:04;15.48;;;7.22;;
78308;SDS011;67566;42.022;21.356;2023-09-12T01:20:00;13.73;;;6.43;;
78308;SDS011;67566;42.022;21.356;2023-09-12T01:27:56;11.75;;;6.45;;
78308;SDS011;67566;42.022;21.356;2023-09-12T01:30:25;14.98;;;6.97;;
78308;SDS011;67566;42.022;21.356;2023-09-12T01:32:53;11.38;;;6.97;;
78308;SDS011;67566;42.022;21.356;2023-09-12T01:35:19;12.35;;;7.13;;
78308;SDS011;67566;42.022;21.356;2023-09-12T01:37:44;11.93;;;6.53;;
78308;SDS011;67566;42.022;21.356;2023-09-12T01:40:10;15.15;;;6.55;;
78308;SDS011;67566;42.022;21.356;2023-09-12T01:42:37;11.40;;;7.55;;
78308;SDS011;67566;42.022;21.356;2023-09-12T01:45:08;12.85;;;7.72;;
78308;SDS011;67566;42.022;21.356;2023-09-12T01:47:35;10.63;;;7.20;;
78308;SDS011;67566;42.022;21.356;2023-09-12T01:50:02;12.10;;;8.00;;
78308;SDS011;67566;42.022;21.356;2023-09-12T01:52:30;17.20;;;7.68;;
78308;SDS011;67566;42.022;21.356;2023-09-12T01:54:56;17.10;;;7.78;;
78308;SDS011;67566;42.022;21.356;2023-09-12T01:57:22;12.57;;;7.95;;
78308;SDS011;67566;42.022;21.356;2023-09-12T01:59:48;14.05;;;7.30;;
78308;SDS011;67566;42.022;21.356;2023-09-12T02:02:15;12.70;;;7.43;;
78308;SDS011;67566;42.022;21.356;2023-09-12T02:04:41;13.98;;;7.78;;
78308;SDS011;67566;42.022;21.356;2023-09-12T02:09:36;14.50;;;7.57;;
78308;SDS011;67566;42.022;21.356;2023-09-12T02:12:02;12.60;;;7.53;;
78308;SDS011;67566;42.022;21.356;2023-09-12T02:14:28;12.77;;;7.18;;
78308;SDS011;67566;42.022;21.356;2023-09-12T02:16:53;11.60;;;7.55;;
78308;SDS011;67566;42.022;21.356;2023-09-12T02:19:18;14.35;;;7.97;;
78308;SDS011;67566;42.022;21.356;2023-09-12T02:21:44;12.82;;;7.57;;
78308;SDS011;67566;42.022;21.356;2023-09-12T02:24:09;11.63;;;7.38;;
78308;SDS011;67566;42.022;21.356;2023-09-12T02:26:35;13.60;;;7.88;;
78308;SDS011;67566;42.022;21.356;2023-09-12T02:29:01;17.40;;;9.57;;
78308;SDS011;67566;42.022;21.356;2023-09-12T02:31:27;17.17;;;9.65;;
78308;SDS011;67566;42.022;21.356;2023-09-12T02:33:53;16.67;;;9.00;;
78308;SDS011;67566;42.022;21.356;2023-09-12T02:36:19;17.15;;;7.65;;
78308;SDS011;67566;42.022;21.356;2023-09-12T02:38:45;16.60;;;7.57;;
78308;SDS011;67566;42.022;21.356;2023-09-12T02:41:10;16.50;;;7.53;;
78308;SDS011;67566;42.022;21.356;2023-09-12T02:43:36;13.32;;;7.38;;
78308;SDS011;67566;42.022;21.356;2023-09-12T02:46:01;13.15;;;7.18;;
78308;SDS011;67566;42.022;21.356;2023-09-12T02:48:27;12.90;;;8.02;;
78308;SDS011;67566;42.022;21.356;2023-09-12T02:50:52;11.50;;;6.97;;
78308;SDS011;67566;42.022;21.356;2023-09-12T02:53:18;16.80;;;8.10;;
78308;SDS011;67566;42.022;21.356;2023-09-12T02:55:43;11.90;;;7.55;;
78308;SDS011;67566;42.022;21.356;2023-09-12T02:58:09;12.07;;;7.07;;
78308;SDS011;67566;42.022;21.356;2023-09-12T03:00:38;18.42;;;7.78;;
78308;SDS011;67566;42.022;21.356;2023-09-12T03:03:04;11.35;;;7.35;;
78308;SDS011;67566;42.022;21.356;2023-09-12T03:05:30;19.15;;;7.55;;
78308;SDS011;67566;42.022;21.356;2023-09-12T03:07:55;14.25;;;7.78;;
78308;SDS011;67566;42.022;21.356;2023-09-12T03:10:21;16.10;;;8.20;;
78308;SDS011;67566;42.022;21.356;2023-09-12T03:12:46;13.55;;;7.63;;
78308;SDS011;67566;42.022;21.356;2023-09-12T03:15:12;14.55;;;8.95;;
78308;SDS011;67566;42.022;21.356;2023-09-12T03:17:37;14.13;;;7.05;;
78308;SDS011;67566;42.022;21.356;2023-09-12T03:20:03;15.88;;;7.68;;
78308;SDS011;67566;42.022;21.356;2023-09-12T03:22:32;13.73;;;6.57;;
78308;SDS011;67566;42.022;21.356;2023-09-12T03:25:02;14.63;;;7.68;;
78308;SDS011;67566;42.022;21.356;2023-09-12T03:27:28;14.70;;;7.68;;
78308;SDS011;67566;42.022;21.356;2023-09-12T03:29:54;12.40;;;7.60;;
78308;SDS011;67566;42.022;21.356;2023-09-12T03:32:19;12.50;;;7.53;;
78308;SDS011;67566;42.022;21.356;2023-09-12T03:34:44;15.95;;;7.13;;
78308;SDS011;67566;42.022;21.356;2023-09-12T03:37:10;15.60;;;8.10;;
78308;SDS011;67566;42.022;21.356;2023-09-12T03:39:35;10.45;;;6.80;;
78308;SDS011;67566;42.022;21.356;2023-09-12T03:42:01;11.55;;;6.97;;
78308;SDS011;67566;42.022;21.356;2023-09-12T03:44:26;11.18;;;6.25;;
78308;SDS011;67566;42.022;21.356;2023-09-12T03:46:52;13.20;;;6.70;;
78308;SDS011;67566;42.022;21.356;2023-09-12T03:49:17;11.77;;;7.78;;
78308;SDS011;67566;42.022;21.356;2023-09-12T03:51:43;15.10;;;8.27;;
78308;SDS011;67566;42.022;21.356;2023-09-12T03:54:08;17.40;;;8.63;;
78308;SDS011;67566;42.022;21.356;2023-09-12T03:56:33;16.98;;;8.82;;
78308;SDS011;67566;42.022;21.356;2023-09-12T03:58:59;15.18;;;8.75;;
78308;SDS011;67566;42.022;21.356;2023-09-12T04:01:25;15.52;;;8.35;;
78308;SDS011;67566;42.022;21.356;2023-09-12T04:03:51;11.98;;;7.82;;
78308;SDS011;67566;42.022;21.356;2023-09-12T04:06:16;14.15;;;8.40;;
78308;SDS011;67566;42.022;21.356;2023-09-12T04:08:42;18.02;;;8.73;;
78308;SDS011;67566;42.022;21.356;2023-09-12T04:11:07;12.32;;;8.00;;
78308;SDS011;67566;42.022;21.356;2023-09-12T04:13:32;18.05;;;8.57;;
78308;SDS011;67566;42.022;21.356;2023-09-12T04:15:58;12.80;;;7.35;;
78308;SDS011;67566;42.022;21.356;2023-09-12T04:18:23;13.15;;;8.90;;
78308;SDS011;67566;42.022;21.356;2023-09-12T04:20:49;15.52;;;9.23;;
78308;SDS011;67566;42.022;21.356;2023-09-12T04:23:15;17.75;;;8.27;;
78308;SDS011;67566;42.022;21.356;2023-09-12T04:25:45;13.43;;;8.05;;
78308;SDS011;67566;42.022;21.356;2023-09-12T04:28:11;12.80;;;8.25;;
78308;SDS011;67566;42.022;21.356;2023-09-12T04:30:36;16.70;;;7.75;;
78308;SDS011;67566;42.022;21.356;2023-09-12T04:33:02;22.20;;;8.35;;
78308;SDS011;67566;42.022;21.356;2023-09-12T04:35:28;15.75;;;8.93;;
78308;SDS011;67566;42.022;21.356;2023-09-12T04:37:54;16.98;;;8.98;;
78308;SDS011;67566;42.022;21.356;2023-09-12T04:40:19;14.23;;;8.95;;
78308;SDS011;67566;42.022;21.356;2023-09-12T04:42:45;16.98;;;9.45;;
78308;SDS011;67566;42.022;21.356;2023-09-12T04:45:11;18.77;;;10.20;;
78308;SDS011;67566;42.022;21.356;2023-09-12T04:47:39;19.63;;;10.45;;
78308;SDS011;67566;42.022;21.356;2023-09-12T04:50:04;16.05;;;8.10;;
78308;SDS011;67566;42.022;21.356;2023-09-12T04:52:30;16.48;;;9.95;;
78308;SDS011;67566;42.022;21.356;2023-09-12T04:54:56;17.27;;;9.82;;
78308;SDS011;67566;42.022;21.356;2023-09-12T04:57:21;16.73;;;8.65;;
78308;SDS011;67566;42.022;21.356;2023-09-12T04:59:47;14.45;;;9.00;;
78308;SDS011;67566;42.022;21.356;2023-09-12T05:02:12;15.65;;;9.73;;
78308;SDS011;67566;42.022;21.356;2023-09-12T05:04:38;16.08;;;9.38;;
78308;SDS011;67566;42.022;21.356;2023-09-12T05:07:03;19.67;;;11.02;;
78308;SDS011;67566;42.022;21.356;2023-09-12T05:09:29;14.68;;;10.35;;
78308;SDS011;67566;42.022;21.356;2023-09-12T05:11:54;16.50;;;10.13;;
78308;SDS011;67566;42.022;21.356;2023-09-12T05:14:20;16.60;;;9.95;;
78308;SDS011;67566;42.022;21.356;2023-09-12T05:16:45;15.68;;;9.82;;
78308;SDS011;67566;42.022;21.356;2023-09-12T05:19:11;14.18;;;10.15;;
78308;SDS011;67566;42.022;21.356;2023-09-12T05:21:36;14.23;;;10.10;;
78308;SDS011;67566;42.022;21.356;2023-09-12T05:24:02;13.05;;;8.25;;
78308;SDS011;67566;42.022;21.356;2023-09-12T05:26:27;13.68;;;8.30;;
78308;SDS011;67566;42.022;21.356;2023-09-12T05:28:53;12.60;;;7.57;;
78308;SDS011;67566;42.022;21.356;2023-09-12T05:31:18;13.48;;;7.00;;
78308;SDS011;67566;42.022;21.356;2023-09-12T05:33:44;11.32;;;7.43;;
78308;SDS011;67566;42.022;21.356;2023-09-12T05:36:09;15.23;;;8.20;;
78308;SDS011;67566;42.022;21.356;2023-09-12T05:38:35;12.20;;;6.65;;
78308;SDS011;67566;42.022;21.356;2023-09-12T05:41:01;19.42;;;8.90;;
78308;SDS011;67566;42.022;21.356;2023-09-12T05:43:26;14.00;;;7.43;;
78308;SDS011;67566;42.022;21.356;2023-09-12T05:45:52;15.13;;;7.55;;
78308;SDS011;67566;42.022;21.356;2023-09-12T05:48:18;16.35;;;7.60;;
78308;SDS011;67566;42.022;21.356;2023-09-12T05:50:43;14.10;;;8.45;;
78308;SDS011;67566;42.022;21.356;2023-09-12T05:53:09;13.95;;;8.27;;
78308;SDS011;67566;42.022;21.356;2023-09-12T05:55:35;12.95;;;7.95;;
78308;SDS011;67566;42.022;21.356;2023-09-12T05:58:00;13.50;;;8.27;;
78308;SDS011;67566;42.022;21.356;2023-09-12T06:00:26;20.13;;;9.15;;
78308;SDS011;67566;42.022;21.356;2023-09-12T06:03:07;16.95;;;8.57;;
78308;SDS011;67566;42.022;21.356;2023-09-12T06:05:33;13.05;;;8.27;;
78308;SDS011;67566;42.022;21.356;2023-09-12T06:07:58;16.73;;;7.60;;
78308;SDS011;67566;42.022;21.356;2023-09-12T06:10:24;15.13;;;8.23;;
78308;SDS011;67566;42.022;21.356;2023-09-12T06:12:50;13.88;;;7.07;;
78308;SDS011;67566;42.022;21.356;2023-09-12T06:15:15;15.05;;;8.02;;
78308;SDS011;67566;42.022;21.356;2023-09-12T06:17:41;15.13;;;7.35;;
78308;SDS011;67566;42.022;21.356;2023-09-12T06:20:06;13.43;;;7.10;;
78308;SDS011;67566;42.022;21.356;2023-09-12T06:22:32;11.27;;;7.55;;
78308;SDS011;67566;42.022;21.356;2023-09-12T06:24:59;15.32;;;8.35;;
78308;SDS011;67566;42.022;21.356;2023-09-12T06:27:24;15.82;;;8.60;;
78308;SDS011;67566;42.022;21.356;2023-09-12T06:29:50;11.88;;;7.50;;
78308;SDS011;67566;42.022;21.356;2023-09-12T06:32:16;11.60;;;7.13;;
78308;SDS011;67566;42.022;21.356;2023-09-12T06:34:42;14.32;;;7.95;;
78308;SDS011;67566;42.022;21.356;2023-09-12T06:37:08;14.85;;;7.30;;
78308;SDS011;67566;42.022;21.356;2023-09-12T06:39:34;13.20;;;8.23;;
78308;SDS011;67566;42.022;21.356;2023-09-12T06:41:59;16.45;;;8.88;;
78308;SDS011;67566;42.022;21.356;2023-09-12T06:44:25;16.63;;;8.95;;
78308;SDS011;67566;42.022;21.356;2023-09-12T06:46:50;12.00;;;8.30;;
78308;SDS011;67566;42.022;21.356;2023-09-12T06:49:16;14.35;;;8.48;;
78308;SDS011;67566;42.022;21.356;2023-09-12T06:51:41;17.27;;;8.30;;
78308;SDS011;67566;42.022;21.356;2023-09-12T06:54:06;19.00;;;8.88;;
78308;SDS011;67566;42.022;21.356;2023-09-12T06:56:32;15.63;;;7.72;;
78308;SDS011;67566;42.022;21.356;2023-09-12T06:59:02;16.02;;;8.40;;
78308;SDS011;67566;42.022;21.356;2023-09-12T07:01:28;12.52;;;7.20;;
78308;SDS011;67566;42.022;21.356;2023-09-12T07:03:53;14.38;;;7.38;;
78308;SDS011;67566;42.022;21.356;2023-09-12T07:06:20;11.95;;;6.68;;
78308;SDS011;67566;42.022;21.356;2023-09-12T07:08:46;18.23;;;7.70;;
78308;SDS011;67566;42.022;21.356;2023-09-12T07:11:11;13.63;;;7.43;;
78308;SDS011;67566;42.022;21.356;2023-09-12T07:13:37;14.10;;;7.28;;
78308;SDS011;67566;42.022;21.356;2023-09-12T07:16:02;17.35;;;7.07;;
78308;SDS011;67566;42.022;21.356;2023-09-12T07:18:29;11.90;;;7.15;;
78308;SDS011;67566;42.022;21.356;2023-09-12T07:20:58;14.35;;;7.40;;
78308;SDS011;67566;42.022;21.356;2023-09-12T07:23:24;20.27;;;8.30;;
78308;SDS011;67566;42.022;21.356;2023-09-12T07:25:49;16.05;;;7.68;;
78308;SDS011;67566;42.022;21.356;2023-09-12T07:28:15;17.73;;;7.82;;
78308;SDS011;67566;42.022;21.356;2023-09-12T07:30:41;13.20;;;7.32;;
78308;SDS011;67566;42.022;21.356;2023-09-12T07:33:06;18.30;;;8.57;;
78308;SDS011;67566;42.022;21.356;2023-09-12T07:35:32;12.30;;;7.45;;
78308;SDS011;67566;42.022;21.356;2023-09-12T07:37:57;14.13;;;7.55;;
78308;SDS011;67566;42.022;21.356;2023-09-12T07:40:23;13.68;;;7.30;;
78308;SDS011;67566;42.022;21.356;2023-09-12T07:42:48;13.48;;;7.72;;
78308;SDS011;67566;42.022;21.356;2023-09-12T07:45:14;12.57;;;6.93;;
78308;SDS011;67566;42.022;21.356;2023-09-12T07:47:39;15.57;;;7.50;;
78308;SDS011;67566;42.022;21.356;2023-09-12T07:50:05;18.25;;;8.88;;
78308;SDS011;67566;42.022;21.356;2023-09-12T07:52:32;12.60;;;6.93;;
78308;SDS011;67566;42.022;21.356;2023-09-12T07:55:00;18.75;;;7.40;;
78308;SDS011;67566;42.022;21.356;2023-09-12T07:57:28;10.07;;;6.30;;
78308;SDS011;67566;42.022;21.356;2023-09-12T07:59:54;12.68;;;7.35;;
78308;SDS011;67566;42.022;21.356;2023-09-12T08:02:19;14.38;;;6.90;;
78308;SDS011;67566;42.022;21.356;2023-09-12T08:04:45;17.92;;;8.40;;
78308;SDS011;67566;42.022;21.356;2023-09-12T08:07:10;14.48;;;7.50;;
78308;SDS011;67566;42.022;21.356;2023-09-12T08:09:52;16.23;;;7.82;;
78308;SDS011;67566;42.022;21.356;2023-09-12T08:12:23;16.42;;;8.88;;
78308;SDS011;67566;42.022;21.356;2023-09-12T08:14:49;12.77;;;7.05;;
78308;SDS011;67566;42.022;21.356;2023-09-12T08:17:15;13.02;;;6.88;;
78308;SDS011;67566;42.022;21.356;2023-09-12T08:19:41;10.85;;;6.90;;
78308;SDS011;67566;42.022;21.356;2023-09-12T08:22:07;12.02;;;7.18;;
78308;SDS011;67566;42.022;21.356;2023-09-12T08:24:34;11.68;;;6.18;;
78308;SDS011;67566;42.022;21.356;2023-09-12T08:27:00;9.25;;;5.57;;
78308;SDS011;67566;42.022;21.356;2023-09-12T08:29:27;9.90;;;5.68;;
78308;SDS011;67566;42.022;21.356;2023-09-12T08:31:53;9.45;;;5.03;;
78308;SDS011;67566;42.022;21.356;2023-09-12T08:34:19;11.55;;;6.53;;
78308;SDS011;67566;42.022;21.356;2023-09-12T08:36:45;12.57;;;6.57;;
78308;SDS011;67566;42.022;21.356;2023-09-12T08:39:14;12.88;;;6.43;;
78308;SDS011;67566;42.022;21.356;2023-09-12T08:41:41;12.18;;;5.18;;
78308;SDS011;67566;42.022;21.356;2023-09-12T08:44:07;13.20;;;5.60;;
78308;SDS011;67566;42.022;21.356;2023-09-12T08:46:34;9.27;;;6.03;;
78308;SDS011;67566;42.022;21.356;2023-09-12T08:48:59;12.45;;;6.03;;
78308;SDS011;67566;42.022;21.356;2023-09-12T08:51:25;10.40;;;6.93;;
78308;SDS011;67566;42.022;21.356;2023-09-12T08:53:51;13.90;;;6.40;;
78308;SDS011;67566;42.022;21.356;2023-09-12T08:56:18;10.48;;;5.53;;
78308;SDS011;67566;42.022;21.356;2023-09-12T08:58:44;11.93;;;5.75;;
78308;SDS011;67566;42.022;21.356;2023-09-12T09:01:13;11.27;;;5.10;;
78308;SDS011;67566;42.022;21.356;2023-09-12T09:03:41;8.77;;;5.45;;
78308;SDS011;67566;42.022;21.356;2023-09-12T09:06:09;8.88;;;4.95;;
78308;SDS011;67566;42.022;21.356;2023-09-12T09:08:35;7.82;;;5.05;;
78308;SDS011;67566;42.022;21.356;2023-09-12T09:11:02;8.98;;;5.28;;
78308;SDS011;67566;42.022;21.356;2023-09-12T09:13:28;11.23;;;5.72;;
78308;SDS011;67566;42.022;21.356;2023-09-12T09:16:13;11.70;;;5.22;;
78308;SDS011;67566;42.022;21.356;2023-09-12T09:18:56;9.80;;;4.82;;
78308;SDS011;67566;42.022;21.356;2023-09-12T09:21:26;9.10;;;5.10;;
78308;SDS011;67566;42.022;21.356;2023-09-12T09:23:55;10.70;;;4.97;;
78308;SDS011;67566;42.022;21.356;2023-09-12T09:26:21;8.40;;;5.50;;
78308;SDS011;67566;42.022;21.356;2023-09-12T09:29:03;7.90;;;4.90;;
78308;SDS011;67566;42.022;21.356;2023-09-12T09:31:29;9.18;;;5.28;;
78308;SDS011;67566;42.022;21.356;2023-09-12T09:33:54;11.65;;;5.85;;
78308;SDS011;67566;42.022;21.356;2023-09-12T09:36:20;7.90;;;5.50;;
78308;SDS011;67566;42.022;21.356;2023-09-12T09:38:46;7.60;;;4.70;;
78308;SDS011;67566;42.022;21.356;2023-09-12T09:41:11;8.00;;;4.85;;
78308;SDS011;67566;42.022;21.356;2023-09-12T09:43:37;13.75;;;5.82;;
78308;SDS011;67566;42.022;21.356;2023-09-12T09:46:03;12.10;;;5.20;;
78308;SDS011;67566;42.022;21.356;2023-09-12T09:48:28;10.25;;;5.78;;
78308;SDS011;67566;42.022;21.356;2023-09-12T09:51:00;8.05;;;5.07;;
78308;SDS011;67566;42.022;21.356;2023-09-12T09:53:28;9.30;;;5.15;;
78308;SDS011;67566;42.022;21.356;2023-09-12T09:56:13;11.13;;;5.22;;
78308;SDS011;67566;42.022;21.356;2023-09-12T10:01:22;8.80;;;4.75;;
78308;SDS011;67566;42.022;21.356;2023-09-12T10:03:52;10.88;;;5.07;;
78308;SDS011;67566;42.022;21.356;2023-09-12T10:06:19;10.40;;;5.90;;
78308;SDS011;67566;42.022;21.356;2023-09-12T10:08:46;10.88;;;5.63;;
78308;SDS011;67566;42.022;21.356;2023-09-12T10:11:15;9.45;;;5.72;;
78308;SDS011;67566;42.022;21.356;2023-09-12T10:13:55;7.63;;;4.53;;
78308;SDS011;67566;42.022;21.356;2023-09-12T10:16:29;11.60;;;5.18;;
78308;SDS011;67566;42.022;21.356;2023-09-12T10:19:00;9.10;;;5.05;;
78308;SDS011;67566;42.022;21.356;2023-09-12T10:21:35;9.57;;;4.93;;
78308;SDS011;67566;42.022;21.356;2023-09-12T10:24:00;10.98;;;5.30;;
78308;SDS011;67566;42.022;21.356;2023-09-12T10:26:28;9.10;;;4.75;;
78308;SDS011;67566;42.022;21.356;2023-09-12T10:28:56;8.30;;;4.80;;
78308;SDS011;67566;42.022;21.356;2023-09-12T10:31:24;7.60;;;4.30;;
78308;SDS011;67566;42.022;21.356;2023-09-12T10:33:50;11.25;;;5.30;;
78308;SDS011;67566;42.022;21.356;2023-09-12T10:36:17;9.27;;;5.00;;
78308;SDS011;67566;42.022;21.356;2023-09-12T10:38:45;7.88;;;4.05;;
78308;SDS011;67566;42.022;21.356;2023-09-12T10:41:13;11.38;;;5.30;;
78308;SDS011;67566;42.022;21.356;2023-09-12T10:43:39;8.63;;;4.47;;
78308;SDS011;67566;42.022;21.356;2023-09-12T10:46:07;6.97;;;4.45;;
78308;SDS011;67566;42.022;21.356;2023-09-12T10:48:34;7.50;;;4.30;;
78308;SDS011;67566;42.022;21.356;2023-09-12T10:51:01;9.07;;;4.80;;
78308;SDS011;67566;42.022;21.356;2023-09-12T10:53:30;9.48;;;4.97;;
78308;SDS011;67566;42.022;21.356;2023-09-12T10:56:14;8.38;;;4.93;;
78308;SDS011;67566;42.022;21.356;2023-09-12T11:01:44;10.02;;;5.70;;
78308;SDS011;67566;42.022;21.356;2023-09-12T11:06:48;8.60;;;4.32;;
78308;SDS011;67566;42.022;21.356;2023-09-12T11:09:16;8.20;;;5.07;;
78308;SDS011;67566;42.022;21.356;2023-09-12T11:11:49;7.72;;;5.47;;
78308;SDS011;67566;42.022;21.356;2023-09-12T11:14:19;12.40;;;5.80;;
78308;SDS011;67566;42.022;21.356;2023-09-12T11:19:53;7.32;;;5.22;;
78308;SDS011;67566;42.022;21.356;2023-09-12T11:22:25;6.68;;;4.53;;
78308;SDS011;67566;42.022;21.356;2023-09-12T11:24:52;11.23;;;5.45;;
78308;SDS011;67566;42.022;21.356;2023-09-12T11:27:19;7.57;;;4.53;;
78308;SDS011;67566;42.022;21.356;2023-09-12T11:29:45;10.27;;;5.40;;
78308;SDS011;67566;42.022;21.356;2023-09-12T11:32:14;9.93;;;4.57;;
78308;SDS011;67566;42.022;21.356;2023-09-12T11:34:50;9.48;;;4.78;;
78308;SDS011;67566;42.022;21.356;2023-09-12T11:37:23;8.88;;;4.75;;
78308;SDS011;67566;42.022;21.356;2023-09-12T11:39:53;8.95;;;5.10;;
78308;SDS011;67566;42.022;21.356;2023-09-12T11:42:19;6.90;;;5.13;;
78308;SDS011;67566;42.022;21.356;2023-09-12T11:44:48;7.35;;;5.20;;
78308;SDS011;67566;42.022;21.356;2023-09-12T11:47:15;6.60;;;4.57;;
78308;SDS011;67566;42.022;21.356;2023-09-12T11:49:41;9.60;;;5.28;;
78308;SDS011;67566;42.022;21.356;2023-09-12T11:52:10;5.93;;;5.10;;
78308;SDS011;67566;42.022;21.356;2023-09-12T11:54:44;8.85;;;5.30;;
78308;SDS011;67566;42.022;21.356;2023-09-12T11:57:12;9.93;;;4.82;;
78308;SDS011;67566;42.022;21.356;2023-09-12T11:59:39;8.65;;;4.68;;
78308;SDS011;67566;42.022;21.356;2023-09-12T12:02:08;9.75;;;4.90;;
78308;SDS011;67566;42.022;21.356;2023-09-12T12:04:35;9.10;;;4.78;;
78308;SDS011;67566;42.022;21.356;2023-09-12T12:07:02;7.90;;;4.63;;
78308;SDS011;67566;42.022;21.356;2023-09-12T12:09:30;8.48;;;5.07;;
78308;SDS011;67566;42.022;21.356;2023-09-12T12:11:56;8.48;;;3.92;;
78308;SDS011;67566;42.022;21.356;2023-09-12T12:14:28;11.45;;;4.90;;
78308;SDS011;67566;42.022;21.356;2023-09-12T12:17:04;7.60;;;4.35;;
78308;SDS011;67566;42.022;21.356;2023-09-12T12:19:30;6.10;;;4.05;;
78308;SDS011;67566;42.022;21.356;2023-09-12T12:21:56;10.55;;;5.05;;
78308;SDS011;67566;42.022;21.356;2023-09-12T12:24:21;10.25;;;5.03;;
78308;SDS011;67566;42.022;21.356;2023-09-12T12:26:47;7.20;;;4.90;;
78308;SDS011;67566;42.022;21.356;2023-09-12T12:29:12;7.90;;;4.85;;
78308;SDS011;67566;42.022;21.356;2023-09-12T12:31:38;13.73;;;5.65;;
78308;SDS011;67566;42.022;21.356;2023-09-12T12:34:04;8.98;;;4.57;;
78308;SDS011;67566;42.022;21.356;2023-09-12T12:36:31;8.20;;;4.50;;
78308;SDS011;67566;42.022;21.356;2023-09-12T12:38:56;8.10;;;5.03;;
78308;SDS011;67566;42.022;21.356;2023-09-12T12:41:26;6.82;;;4.35;;
78308;SDS011;67566;42.022;21.356;2023-09-12T12:43:53;8.63;;;4.50;;
78308;SDS011;67566;42.022;21.356;2023-09-12T12:46:24;11.35;;;4.75;;
78308;SDS011;67566;42.022;21.356;2023-09-12T12:48:49;7.28;;;3.80;;
78308;SDS011;67566;42.022;21.356;2023-09-12T12:51:16;8.65;;;4.50;;
78308;SDS011;67566;42.022;21.356;2023-09-12T12:53:48;7.63;;;4.18;;
78308;SDS011;67566;42.022;21.356;2023-09-12T12:56:25;8.02;;;4.60;;
78308;SDS011;67566;42.022;21.356;2023-09-12T12:58:56;6.47;;;3.65;;
78308;SDS011;67566;42.022;21.356;2023-09-12T13:01:23;7.30;;;3.50;;
78308;SDS011;67566;42.022;21.356;2023-09-12T13:03:50;7.55;;;3.78;;
78308;SDS011;67566;42.022;21.356;2023-09-12T13:06:16;8.13;;;4.70;;
78308;SDS011;67566;42.022;21.356;2023-09-12T13:08:43;5.75;;;3.83;;
78308;SDS011;67566;42.022;21.356;2023-09-12T13:11:12;7.70;;;4.00;;
78308;SDS011;67566;42.022;21.356;2023-09-12T13:13:38;8.82;;;4.03;;
78308;SDS011;67566;42.022;21.356;2023-09-12T13:16:05;7.55;;;3.95;;
78308;SDS011;67566;42.022;21.356;2023-09-12T13:18:32;16.02;;;4.65;;
78308;SDS011;67566;42.022;21.356;2023-09-12T13:20:58;7.40;;;3.90;;
78308;SDS011;67566;42.022;21.356;2023-09-12T13:23:23;7.30;;;3.95;;
78308;SDS011;67566;42.022;21.356;2023-09-12T13:25:50;9.80;;;4.18;;
78308;SDS011;67566;42.022;21.356;2023-09-12T13:28:16;7.15;;;3.80;;
78308;SDS011;67566;42.022;21.356;2023-09-12T13:30:41;7.80;;;3.92;;
78308;SDS011;67566;42.022;21.356;2023-09-12T13:33:07;9.25;;;4.22;;
78308;SDS011;67566;42.022;21.356;2023-09-12T13:35:32;10.75;;;4.43;;
78308;SDS011;67566;42.022;21.356;2023-09-12T13:37:58;6.75;;;3.50;;
78308;SDS011;67566;42.022;21.356;2023-09-12T13:40:23;11.63;;;3.45;;
78308;SDS011;67566;42.022;21.356;2023-09-12T13:42:49;12.85;;;4.00;;
78308;SDS011;67566;42.022;21.356;2023-09-12T13:45:14;8.20;;;3.90;;
78308;SDS011;67566;42.022;21.356;2023-09-12T13:47:41;9.15;;;4.20;;
78308;SDS011;67566;42.022;21.356;2023-09-12T13:50:08;8.10;;;4.10;;
78308;SDS011;67566;42.022;21.356;2023-09-12T13:52:33;6.75;;;3.70;;
78308;SDS011;67566;42.022;21.356;2023-09-12T13:55:00;6.90;;;4.15;;
78308;SDS011;67566;42.022;21.356;2023-09-12T13:57:28;7.90;;;4.03;;
78308;SDS011;67566;42.022;21.356;2023-09-12T13:59:54;6.70;;;4.30;;
78308;SDS011;67566;42.022;21.356;2023-09-12T14:02:19;9.35;;;3.78;;
78308;SDS011;67566;42.022;21.356;2023-09-12T14:04:45;11.23;;;3.90;;
78308;SDS011;67566;42.022;21.356;2023-09-12T14:07:10;8.27;;;3.80;;
78308;SDS011;67566;42.022;21.356;2023-09-12T14:09:36;10.15;;;4.53;;
78308;SDS011;67566;42.022;21.356;2023-09-12T14:12:01;5.82;;;3.80;;
78308;SDS011;67566;42.022;21.356;2023-09-12T14:14:31;7.38;;;3.88;;
78308;SDS011;67566;42.022;21.356;2023-09-12T14:16:58;5.70;;;3.88;;
78308;SDS011;67566;42.022;21.356;2023-09-12T14:19:24;11.45;;;4.13;;
78308;SDS011;67566;42.022;21.356;2023-09-12T14:21:50;7.75;;;3.85;;
78308;SDS011;67566;42.022;21.356;2023-09-12T14:24:15;6.18;;;3.47;;
78308;SDS011;67566;42.022;21.356;2023-09-12T14:26:41;10.52;;;4.63;;
78308;SDS011;67566;42.022;21.356;2023-09-12T14:29:06;7.40;;;3.83;;
78308;SDS011;67566;42.022;21.356;2023-09-12T14:31:32;6.38;;;3.60;;
78308;SDS011;67566;42.022;21.356;2023-09-12T14:33:57;8.55;;;3.72;;
78308;SDS011;67566;42.022;21.356;2023-09-12T14:36:23;8.30;;;3.95;;
78308;SDS011;67566;42.022;21.356;2023-09-12T14:38:48;7.25;;;4.07;;
78308;SDS011;67566;42.022;21.356;2023-09-12T14:41:14;9.18;;;3.88;;
78308;SDS011;67566;42.022;21.356;2023-09-12T14:43:39;6.13;;;3.85;;
78308;SDS011;67566;42.022;21.356;2023-09-12T14:46:05;6.35;;;3.65;;